createdAt,value
2022-12-15T00:00:06.716Z,98.52
2022-12-15T00:01:06.758Z,98.52
2022-12-15T00:02:06.719Z,98.52
2022-12-15T00:03:06.800Z,98.52
2022-12-15T00:04:06.793Z,98.52
2022-12-15T00:05:06.656Z,98.42
2022-12-15T00:06:06.648Z,98.42
2022-12-15T00:07:06.704Z,98.52
2022-12-15T00:08:06.630Z,98.63
2022-12-15T00:09:09.787Z,98.52
2022-12-15T00:10:06.617Z,98.52
2022-12-15T00:11:06.591Z,98.63
2022-12-15T00:12:06.584Z,98.52
2022-12-15T00:13:06.570Z,98.52
2022-12-15T00:14:06.581Z,98.42
2022-12-15T00:15:06.551Z,98.42
2022-12-15T00:16:06.610Z,98.42
2022-12-15T00:17:06.529Z,98.32
2022-12-15T00:18:06.524Z,98.32
2022-12-15T00:19:06.521Z,98.32
2022-12-15T00:20:06.542Z,98.21
2022-12-15T00:21:06.487Z,98.21
2022-12-15T00:22:06.485Z,98.25
2022-12-15T00:23:06.471Z,98.21
2022-12-15T00:24:06.477Z,98.21
2022-12-15T00:25:06.445Z,98.21
2022-12-15T00:26:06.439Z,98.21
2022-12-15T00:27:06.426Z,98.21
2022-12-15T00:28:06.422Z,98.32
2022-12-15T00:29:06.422Z,98.32
2022-12-15T00:30:06.397Z,98.21
2022-12-15T00:31:06.435Z,98.21
2022-12-15T00:32:06.378Z,98.21
2022-12-15T00:33:06.364Z,98.21
2022-12-15T00:34:06.369Z,98.10
2022-12-15T00:35:06.358Z,97.99
2022-12-15T00:36:06.339Z,97.99
2022-12-15T00:37:06.324Z,97.99
2022-12-15T00:38:06.314Z,97.99
2022-12-15T00:39:06.312Z,97.99
2022-12-15T00:40:06.297Z,98.10
2022-12-15T00:41:06.281Z,98.32
2022-12-15T00:42:06.271Z,98.21
2022-12-15T00:43:06.260Z,98.21
2022-12-15T00:44:06.265Z,98.21
2022-12-15T00:45:06.239Z,98.32
2022-12-15T00:46:06.244Z,98.32
2022-12-15T00:47:06.297Z,98.32
2022-12-15T00:48:06.211Z,98.32
2022-12-15T00:49:06.205Z,98.38
2022-12-15T00:50:06.191Z,98.42
2022-12-15T00:51:06.173Z,98.48
2022-12-15T00:52:06.169Z,98.38
2022-12-15T00:53:06.154Z,98.48
2022-12-15T00:54:06.161Z,98.48
2022-12-15T00:55:06.133Z,98.59
2022-12-15T00:56:06.128Z,98.69
2022-12-15T00:57:06.116Z,98.69
2022-12-15T00:58:06.109Z,98.69
2022-12-15T00:59:06.100Z,98.69
2022-12-15T01:00:06.086Z,98.80
2022-12-15T01:01:06.075Z,98.91
2022-12-15T01:02:06.137Z,98.97
2022-12-15T01:03:06.338Z,99.07
2022-12-15T01:04:06.190Z,99.07
2022-12-15T01:05:06.037Z,99.13
2022-12-15T01:06:06.018Z,99.24
2022-12-15T01:07:06.011Z,99.24
2022-12-15T01:08:05.995Z,99.30
2022-12-15T01:09:06.023Z,99.30
2022-12-15T01:10:05.976Z,99.30
2022-12-15T01:11:05.971Z,99.30
2022-12-15T01:12:05.969Z,99.41
2022-12-15T01:13:05.952Z,99.37
2022-12-15T01:14:05.947Z,99.37
2022-12-15T01:15:05.927Z,99.26
2022-12-15T01:16:05.963Z,99.26
2022-12-15T01:17:05.908Z,99.26
2022-12-15T01:18:05.890Z,99.26
2022-12-15T01:19:05.900Z,99.26
2022-12-15T01:20:05.870Z,99.26
2022-12-15T01:21:05.866Z,99.21
2022-12-15T01:22:05.850Z,99.21
2022-12-15T01:23:05.844Z,99.32
2022-12-15T01:24:05.840Z,99.32
2022-12-15T01:25:05.823Z,99.32
2022-12-15T01:26:05.813Z,99.32
2022-12-15T01:27:05.802Z,99.27
2022-12-15T01:28:05.788Z,99.38
2022-12-15T01:29:05.797Z,99.27
2022-12-15T01:30:05.769Z,99.27
2022-12-15T01:31:05.783Z,99.27
2022-12-15T01:32:05.743Z,99.27
2022-12-15T01:33:05.738Z,99.27
2022-12-15T01:34:05.736Z,99.27
2022-12-15T01:35:05.717Z,99.17
2022-12-15T01:36:05.702Z,99.17
2022-12-15T01:37:05.701Z,99.07
2022-12-15T01:38:05.682Z,99.07
2022-12-15T01:39:05.685Z,99.07
2022-12-15T01:40:05.658Z,99.07
2022-12-15T01:41:05.653Z,99.07
2022-12-15T01:42:05.641Z,99.07
2022-12-15T01:43:05.632Z,98.96
2022-12-15T01:44:05.633Z,98.96
2022-12-15T01:45:05.613Z,98.96
2022-12-15T01:46:05.607Z,98.85
2022-12-15T01:47:05.636Z,98.74
2022-12-15T01:48:05.588Z,98.74
2022-12-15T01:49:05.578Z,98.64
2022-12-15T01:50:05.599Z,98.58
2022-12-15T01:51:05.551Z,98.47
2022-12-15T01:52:05.535Z,98.36
2022-12-15T01:53:05.533Z,98.26
2022-12-15T01:54:05.524Z,98.30
2022-12-15T01:55:05.508Z,98.30
2022-12-15T01:56:05.493Z,98.20
2022-12-15T01:57:05.488Z,98.20
2022-12-15T01:58:05.469Z,98.20
2022-12-15T01:59:05.481Z,98.20
2022-12-15T02:00:05.449Z,98.20
2022-12-15T02:01:05.546Z,98.30
2022-12-15T02:02:05.551Z,98.30
2022-12-15T02:03:05.577Z,98.41
2022-12-15T02:04:05.422Z,98.52
2022-12-15T02:05:05.403Z,98.62
2022-12-15T02:06:05.397Z,98.62
2022-12-15T02:07:05.382Z,98.68
2022-12-15T02:08:05.365Z,98.68
2022-12-15T02:09:05.373Z,98.68
2022-12-15T02:10:05.344Z,98.68
2022-12-15T02:11:05.338Z,98.68
2022-12-15T02:12:05.323Z,98.68
2022-12-15T02:13:05.317Z,98.68
2022-12-15T02:14:05.605Z,98.68
2022-12-15T02:15:05.302Z,98.68
2022-12-15T02:16:05.310Z,98.68
2022-12-15T02:17:05.274Z,98.68
2022-12-15T02:18:05.275Z,98.68
2022-12-15T02:19:05.255Z,98.68
2022-12-15T02:20:05.251Z,98.68
2022-12-15T02:21:05.236Z,98.58
2022-12-15T02:22:05.219Z,98.58
2022-12-15T02:23:05.216Z,98.58
2022-12-15T02:24:05.203Z,98.52
2022-12-15T02:25:05.208Z,98.52
2022-12-15T02:26:05.177Z,98.41
2022-12-15T02:27:05.173Z,98.30
2022-12-15T02:28:05.157Z,98.30
2022-12-15T02:29:05.149Z,98.20
2022-12-15T02:30:05.145Z,98.20
2022-12-15T02:31:05.158Z,98.09
2022-12-15T02:32:05.139Z,98.03
2022-12-15T02:33:05.114Z,98.03
2022-12-15T02:34:05.098Z,98.03
2022-12-15T02:35:05.101Z,98.03
2022-12-15T02:36:05.072Z,98.03
2022-12-15T02:37:05.073Z,98.14
2022-12-15T02:38:05.051Z,98.14
2022-12-15T02:39:05.045Z,98.14
2022-12-15T02:40:05.047Z,98.14
2022-12-15T02:41:05.024Z,98.14
2022-12-15T02:42:05.009Z,98.03
2022-12-15T02:43:05.003Z,98.03
2022-12-15T02:44:04.994Z,98.03
2022-12-15T02:45:04.998Z,98.03
2022-12-15T02:46:05.075Z,98.03
2022-12-15T02:47:04.962Z,98.14
2022-12-15T02:48:04.950Z,98.14
2022-12-15T02:49:04.939Z,98.24
2022-12-15T02:50:04.937Z,98.35
2022-12-15T02:51:04.918Z,98.46
2022-12-15T02:52:04.904Z,98.56
2022-12-15T02:53:04.899Z,98.52
2022-12-15T02:54:04.892Z,98.52
2022-12-15T02:55:04.884Z,98.62
2022-12-15T02:56:04.867Z,98.62
2022-12-15T02:57:04.853Z,98.52
2022-12-15T02:58:04.847Z,98.52
2022-12-15T03:02:59.488Z,98.62
2022-12-15T03:03:39.425Z,98.62
2022-12-15T03:04:39.286Z,98.62
2022-12-15T03:05:39.279Z,98.62
2022-12-15T03:06:39.266Z,98.62
2022-12-15T03:07:39.251Z,98.62
2022-12-15T03:08:39.254Z,98.62
2022-12-15T03:09:39.236Z,98.62
2022-12-15T03:10:39.244Z,98.62
2022-12-15T03:11:39.212Z,98.62
2022-12-15T03:12:39.204Z,98.62
2022-12-15T03:13:39.200Z,98.62
2022-12-15T03:14:39.184Z,98.52
2022-12-15T03:15:39.172Z,98.41
2022-12-15T03:16:39.237Z,98.41
2022-12-15T03:17:39.147Z,98.30
2022-12-15T03:18:39.153Z,98.30
2022-12-15T03:19:39.126Z,98.20
2022-12-15T03:20:39.123Z,98.20
2022-12-15T03:21:39.109Z,98.20
2022-12-15T03:22:39.220Z,98.20
2022-12-15T03:23:39.091Z,98.20
2022-12-15T03:24:39.079Z,98.30
2022-12-15T03:25:39.061Z,98.30
2022-12-15T03:26:39.060Z,98.20
2022-12-15T03:27:39.044Z,98.20
2022-12-15T03:28:39.047Z,98.20
2022-12-15T03:29:39.070Z,98.20
2022-12-15T03:30:39.015Z,98.20
2022-12-15T03:31:39.062Z,98.20
2022-12-15T03:32:38.998Z,98.09
2022-12-15T03:33:38.991Z,98.09
2022-12-15T03:34:38.973Z,97.99
2022-12-15T03:35:38.960Z,98.09
2022-12-15T03:36:38.954Z,98.09
2022-12-15T03:37:38.944Z,98.09
2022-12-15T03:38:38.940Z,98.20
2022-12-15T03:39:38.918Z,98.20
2022-12-15T03:40:38.912Z,98.20
2022-12-15T03:41:38.901Z,98.30
2022-12-15T03:42:38.886Z,98.30
2022-12-15T03:43:38.887Z,98.41
2022-12-15T03:44:38.900Z,98.41
2022-12-15T03:45:38.889Z,98.52
2022-12-15T03:46:38.846Z,98.52
2022-12-15T03:47:38.838Z,98.41
2022-12-15T03:48:38.836Z,98.52
2022-12-15T03:49:38.816Z,98.41
2022-12-15T03:50:38.801Z,98.41
2022-12-15T03:51:38.797Z,98.41
2022-12-15T03:52:38.782Z,98.30
2022-12-15T03:53:38.788Z,98.41
2022-12-15T03:54:38.758Z,98.41
2022-12-15T03:55:38.753Z,98.41
2022-12-15T03:56:38.739Z,98.41
2022-12-15T03:57:38.734Z,98.41
2022-12-15T03:58:38.725Z,98.41
2022-12-15T03:59:38.713Z,98.41
2022-12-15T04:00:38.699Z,98.41
2022-12-15T04:01:38.778Z,98.30
2022-12-15T04:02:38.798Z,98.41
2022-12-15T04:03:38.729Z,98.41
2022-12-15T04:04:38.653Z,98.30
2022-12-15T04:05:38.649Z,98.35
2022-12-15T04:06:38.634Z,98.46
2022-12-15T04:07:38.629Z,98.46
2022-12-15T04:08:38.627Z,98.52
2022-12-15T04:09:38.617Z,98.52
2022-12-15T04:10:38.597Z,98.52
2022-12-15T04:11:38.588Z,98.62
2022-12-15T04:12:38.581Z,98.62
2022-12-15T04:13:38.574Z,98.52
2022-12-15T04:14:38.550Z,98.52
2022-12-15T04:15:38.542Z,98.52
2022-12-15T04:16:38.595Z,98.62
2022-12-15T04:17:38.530Z,98.52
2022-12-15T04:18:38.520Z,98.52
2022-12-15T04:19:38.501Z,98.52
2022-12-15T04:20:38.487Z,98.52
2022-12-15T04:21:38.483Z,98.62
2022-12-15T04:22:38.466Z,98.62
2022-12-15T04:23:38.469Z,98.62
2022-12-15T04:24:38.444Z,98.62
2022-12-15T04:25:38.439Z,98.62
2022-12-15T04:26:38.424Z,98.62
2022-12-15T04:27:38.418Z,98.73
2022-12-15T04:28:38.411Z,98.73
2022-12-15T04:29:38.403Z,98.73
2022-12-15T04:30:38.462Z,98.73
2022-12-15T04:31:38.378Z,98.73
2022-12-15T04:32:38.365Z,98.73
2022-12-15T04:33:38.943Z,98.73
2022-12-15T04:34:38.342Z,98.73
2022-12-15T04:35:38.343Z,98.73
2022-12-15T04:36:38.323Z,98.68
2022-12-15T04:37:38.316Z,98.68
2022-12-15T04:38:39.864Z,98.68
2022-12-15T04:39:38.293Z,98.68
2022-12-15T04:40:38.281Z,98.68
2022-12-15T04:41:38.271Z,98.58
2022-12-15T04:42:38.258Z,98.58
2022-12-15T04:43:38.249Z,98.68
2022-12-15T04:44:38.246Z,98.58
2022-12-15T04:45:38.231Z,98.68
2022-12-15T04:46:38.339Z,98.68
2022-12-15T04:47:38.209Z,98.68
2022-12-15T04:48:38.196Z,98.68
2022-12-15T04:49:38.205Z,98.68
2022-12-15T04:50:38.399Z,98.79
2022-12-15T04:51:38.164Z,98.79
2022-12-15T04:52:38.156Z,98.79
2022-12-15T04:53:38.147Z,98.68
2022-12-15T04:54:38.140Z,98.68
2022-12-15T04:55:38.201Z,98.58
2022-12-15T04:56:38.114Z,98.58
2022-12-15T04:57:38.105Z,98.58
2022-12-15T04:58:38.091Z,98.58
2022-12-15T04:59:38.096Z,98.58
2022-12-15T05:00:38.092Z,98.47
2022-12-15T05:01:38.142Z,98.47
2022-12-15T05:02:38.239Z,98.47
2022-12-15T05:03:38.044Z,98.36
2022-12-15T05:04:38.107Z,98.36
2022-12-15T05:05:38.024Z,98.36
2022-12-15T05:06:38.007Z,98.36
2022-12-15T05:07:37.998Z,98.26
2022-12-15T05:08:37.990Z,98.26
2022-12-15T05:09:37.988Z,98.26
2022-12-15T05:10:37.963Z,98.26
2022-12-15T05:11:37.958Z,98.20
2022-12-15T05:12:37.942Z,98.20
2022-12-15T05:13:37.934Z,98.20
2022-12-15T05:14:37.931Z,98.09
2022-12-15T05:15:37.949Z,97.99
2022-12-15T05:16:37.899Z,98.03
2022-12-15T05:17:41.405Z,97.92
2022-12-15T05:18:37.880Z,97.92
2022-12-15T05:19:37.882Z,97.92
2022-12-15T05:20:37.862Z,97.92
2022-12-15T05:21:37.851Z,97.92
2022-12-15T05:22:37.836Z,97.92
2022-12-15T05:23:37.830Z,97.81
2022-12-15T05:24:37.827Z,97.86
2022-12-15T05:25:37.811Z,97.86
2022-12-15T05:26:37.796Z,97.75
2022-12-15T05:27:37.793Z,97.75
2022-12-15T05:28:37.775Z,97.75
2022-12-15T05:29:37.799Z,97.75
2022-12-15T05:30:37.814Z,97.75
2022-12-15T05:31:37.795Z,97.69
2022-12-15T05:32:37.736Z,97.80
2022-12-15T05:33:37.728Z,97.80
2022-12-15T05:34:37.721Z,97.91
2022-12-15T05:35:37.706Z,97.91
2022-12-15T05:36:37.691Z,98.01
2022-12-15T05:37:37.685Z,98.01
2022-12-15T05:38:37.672Z,98.01
2022-12-15T05:39:37.676Z,98.01
2022-12-15T05:40:37.651Z,98.01
2022-12-15T05:41:37.644Z,98.01
2022-12-15T05:42:37.632Z,98.01
2022-12-15T05:43:37.623Z,98.01
2022-12-15T05:44:37.619Z,98.01
2022-12-15T05:45:37.603Z,98.05
2022-12-15T05:46:37.636Z,98.12
2022-12-15T05:47:37.580Z,98.22
2022-12-15T05:48:37.566Z,98.44
2022-12-15T05:49:37.570Z,98.54
2022-12-15T05:50:37.545Z,98.75
2022-12-15T05:51:37.539Z,98.82
2022-12-15T05:52:37.525Z,98.82
2022-12-15T05:53:37.518Z,98.93
2022-12-15T05:54:37.514Z,99.03
2022-12-15T05:55:37.496Z,99.24
2022-12-15T05:56:37.489Z,99.24
2022-12-15T05:57:37.476Z,99.30
2022-12-15T05:58:43.053Z,99.41
2022-12-15T05:59:37.475Z,99.41
2022-12-15T06:00:37.443Z,99.41
2022-12-15T06:01:37.493Z,99.41
2022-12-15T06:02:37.459Z,99.41
2022-12-15T06:03:37.410Z,99.41
2022-12-15T06:04:37.510Z,99.41
2022-12-15T06:05:37.390Z,99.52
2022-12-15T06:06:37.384Z,99.52
2022-12-15T06:07:37.368Z,99.41
2022-12-15T06:08:37.360Z,99.52
2022-12-15T06:09:37.358Z,99.52
2022-12-15T06:10:37.346Z,99.52
2022-12-15T06:11:37.329Z,99.52
2022-12-15T06:12:37.319Z,99.41
2022-12-15T06:13:37.308Z,99.41
2022-12-15T06:14:37.307Z,99.30
2022-12-15T06:15:37.283Z,99.30
2022-12-15T06:16:42.646Z,99.26
2022-12-15T06:17:37.271Z,99.26
2022-12-15T06:18:37.262Z,99.15
2022-12-15T06:19:37.252Z,99.15
2022-12-15T06:20:37.238Z,99.05
2022-12-15T06:21:37.224Z,99.05
2022-12-15T06:22:37.213Z,98.94
2022-12-15T06:23:37.202Z,99.05
2022-12-15T06:24:37.208Z,98.94
2022-12-15T06:25:37.180Z,99.05
2022-12-15T06:26:37.172Z,98.94
2022-12-15T06:27:37.158Z,99.05
2022-12-15T06:28:37.151Z,99.05
2022-12-15T06:29:37.146Z,98.94
2022-12-15T06:30:37.133Z,98.94
2022-12-15T06:31:37.193Z,98.83
2022-12-15T06:32:37.110Z,98.73
2022-12-15T06:33:37.099Z,98.73
2022-12-15T06:34:37.096Z,98.62
2022-12-15T06:35:37.075Z,98.62
2022-12-15T06:36:37.067Z,98.62
2022-12-15T06:37:37.053Z,98.62
2022-12-15T06:38:37.048Z,98.62
2022-12-15T06:39:37.041Z,98.62
2022-12-15T06:40:38.234Z,98.62
2022-12-15T06:41:37.014Z,98.52
2022-12-15T06:42:37.006Z,98.52
2022-12-15T06:43:36.993Z,98.52
2022-12-15T06:44:37.011Z,98.41
2022-12-15T06:45:36.968Z,98.46
2022-12-15T06:46:36.987Z,98.46
2022-12-15T06:47:36.948Z,98.35
2022-12-15T06:48:36.946Z,98.24
2022-12-15T06:49:36.936Z,98.28
2022-12-15T06:50:36.923Z,98.39
2022-12-15T06:51:36.908Z,98.35
2022-12-15T06:52:36.902Z,98.46
2022-12-15T06:53:36.890Z,98.56
2022-12-15T06:54:36.899Z,98.56
2022-12-15T06:55:36.865Z,98.56
2022-12-15T06:56:36.859Z,98.60
2022-12-15T06:57:36.845Z,98.77
2022-12-15T06:58:36.838Z,98.77
2022-12-15T06:59:36.825Z,98.88
2022-12-15T07:00:36.827Z,98.99
2022-12-15T07:01:37.032Z,98.99
2022-12-15T07:02:37.024Z,98.99
2022-12-15T07:03:37.477Z,98.99
2022-12-15T07:04:36.780Z,99.09
2022-12-15T07:05:36.773Z,99.19
2022-12-15T07:06:37.054Z,99.19
2022-12-15T07:07:36.743Z,99.19
2022-12-15T07:08:41.283Z,99.19
2022-12-15T07:09:36.725Z,99.19
2022-12-15T07:10:36.722Z,99.24
2022-12-15T07:11:36.704Z,99.24
2022-12-15T07:12:36.695Z,99.13
2022-12-15T07:13:36.679Z,99.03
2022-12-15T07:14:36.687Z,99.03
2022-12-15T07:15:36.674Z,99.03
2022-12-15T07:16:36.763Z,99.03
2022-12-15T07:17:36.638Z,99.13
2022-12-15T07:18:36.631Z,99.13
2022-12-15T07:19:36.618Z,99.13
2022-12-15T07:20:36.616Z,99.13
2022-12-15T07:21:36.594Z,99.03
2022-12-15T07:22:36.587Z,98.97
2022-12-15T07:23:53.256Z,98.97
2022-12-15T07:24:36.574Z,98.97
2022-12-15T07:25:36.561Z,98.97
2022-12-15T07:26:36.547Z,98.97
2022-12-15T07:27:36.532Z,98.97
2022-12-15T07:28:36.526Z,98.86
2022-12-15T07:29:36.510Z,98.86
2022-12-15T07:30:38.907Z,98.75
2022-12-15T07:31:36.544Z,98.75
2022-12-15T07:32:36.483Z,98.75
2022-12-15T07:33:36.470Z,98.80
2022-12-15T07:34:36.465Z,98.69
2022-12-15T07:35:36.464Z,98.80
2022-12-15T07:36:36.441Z,98.75
2022-12-15T07:37:36.429Z,98.97
2022-12-15T07:38:36.421Z,99.24
2022-12-15T07:39:36.406Z,99.24
2022-12-15T07:40:36.409Z,99.46
2022-12-15T07:41:36.386Z,99.56
2022-12-15T07:42:36.383Z,99.52
2022-12-15T07:43:37.170Z,99.62
2022-12-15T07:44:36.360Z,99.62
2022-12-15T07:45:36.507Z,99.62
2022-12-15T07:46:36.400Z,99.52
2022-12-15T07:47:36.323Z,99.52
2022-12-15T07:48:36.322Z,99.52
2022-12-15T07:49:36.305Z,99.52
2022-12-15T07:50:36.305Z,99.62
2022-12-15T07:51:36.282Z,99.52
2022-12-15T07:52:36.283Z,99.52
2022-12-15T07:53:36.298Z,99.41
2022-12-15T07:54:36.255Z,99.52
2022-12-15T07:56:04.896Z,99.52
2022-12-15T07:56:39.290Z,99.52
2022-12-15T07:57:36.224Z,99.62
2022-12-15T07:58:36.227Z,99.68
2022-12-15T07:59:36.202Z,99.79
2022-12-15T08:00:36.198Z,99.68
2022-12-15T08:01:36.316Z,99.68
2022-12-15T08:02:36.358Z,99.68
2022-12-15T08:03:37.147Z,99.68
2022-12-15T08:04:36.275Z,99.64
2022-12-15T08:05:36.150Z,99.64
2022-12-15T08:06:36.130Z,99.74
2022-12-15T08:07:36.121Z,99.74
2022-12-15T08:08:36.610Z,99.85
2022-12-15T08:09:36.096Z,99.80
2022-12-15T08:10:36.094Z,99.70
2022-12-15T08:11:36.078Z,99.59
2022-12-15T08:12:36.062Z,99.49
2022-12-15T08:14:36.047Z,99.38
2022-12-15T08:15:36.038Z,99.27
2022-12-15T08:16:36.066Z,99.17
2022-12-15T08:17:36.012Z,99.17
2022-12-15T08:18:36.004Z,99.07
2022-12-15T08:19:35.994Z,99.07
2022-12-15T08:20:35.985Z,98.96
2022-12-15T08:21:35.983Z,98.96
2022-12-15T08:22:35.961Z,98.85
2022-12-15T08:23:35.953Z,98.74
2022-12-15T08:24:35.936Z,98.74
2022-12-15T08:25:35.930Z,98.85
2022-12-15T08:26:35.953Z,98.85
2022-12-15T08:27:35.917Z,98.85
2022-12-15T08:28:35.897Z,98.85
2022-12-15T08:29:52.415Z,98.81
2022-12-15T08:30:35.882Z,98.81
2022-12-15T08:31:35.972Z,98.81
2022-12-15T08:32:35.856Z,98.81
2022-12-15T08:33:35.851Z,98.70
2022-12-15T08:34:35.833Z,98.70
2022-12-15T08:35:55.765Z,98.70
2022-12-15T08:36:35.826Z,98.60
2022-12-15T08:37:35.805Z,98.49
2022-12-15T08:38:35.791Z,98.49
2022-12-15T08:39:35.787Z,98.38
2022-12-15T08:40:35.769Z,98.49
2022-12-15T08:41:35.773Z,98.60
2022-12-15T08:42:35.751Z,98.49
2022-12-15T08:43:35.743Z,98.49
2022-12-15T08:44:35.727Z,98.55
2022-12-15T08:45:35.786Z,98.55
2022-12-15T08:46:35.716Z,98.66
2022-12-15T08:47:35.700Z,98.66
2022-12-15T08:48:35.684Z,98.66
2022-12-15T08:49:35.688Z,98.55
2022-12-15T08:50:35.667Z,98.61
2022-12-15T08:51:35.667Z,98.50
2022-12-15T08:52:35.644Z,98.50
2022-12-15T08:53:35.636Z,98.50
2022-12-15T08:54:35.631Z,98.40
2022-12-15T08:55:35.616Z,98.40
2022-12-15T08:56:35.614Z,98.30
2022-12-15T08:57:35.596Z,98.40
2022-12-15T08:58:35.584Z,98.40
2022-12-15T08:59:35.573Z,98.36
2022-12-15T09:00:35.558Z,98.36
2022-12-15T09:01:35.654Z,98.46
2022-12-15T09:02:35.670Z,98.46
2022-12-15T09:03:36.182Z,98.57
2022-12-15T09:04:35.568Z,98.68
2022-12-15T09:05:35.506Z,98.63
2022-12-15T09:06:35.511Z,98.74
2022-12-15T09:07:35.485Z,98.74
2022-12-15T09:08:35.482Z,98.58
2022-12-15T09:09:35.470Z,98.48
2022-12-15T09:10:35.489Z,98.37
2022-12-15T09:11:35.457Z,98.27
2022-12-15T09:12:35.437Z,98.27
2022-12-15T09:13:35.973Z,98.16
2022-12-15T09:14:35.421Z,98.01
2022-12-15T09:16:07.723Z,98.01
2022-12-15T09:16:35.476Z,97.91
2022-12-15T09:17:35.379Z,97.80
2022-12-15T09:18:35.380Z,97.69
2022-12-15T09:19:35.363Z,97.69
2022-12-15T09:20:35.354Z,97.59
2022-12-15T09:21:35.351Z,97.59
2022-12-15T09:22:35.329Z,97.44
2022-12-15T09:23:35.914Z,97.44
2022-12-15T09:24:35.699Z,97.33
2022-12-15T09:25:35.299Z,97.33
2022-12-15T09:26:35.302Z,97.33
2022-12-15T09:27:35.274Z,97.33
2022-12-15T09:28:35.284Z,97.33
2022-12-15T09:29:35.256Z,97.33
2022-12-15T09:30:35.292Z,97.33
2022-12-15T09:31:35.241Z,97.23
2022-12-15T09:32:35.224Z,97.23
2022-12-15T09:33:35.555Z,97.13
2022-12-15T09:34:35.204Z,97.08
2022-12-15T09:35:35.187Z,96.97
2022-12-15T09:36:35.192Z,96.97
2022-12-15T09:37:35.168Z,96.97
2022-12-15T09:38:35.165Z,96.87
2022-12-15T09:39:35.146Z,96.87
2022-12-15T09:40:35.140Z,96.87
2022-12-15T09:41:35.135Z,96.87
2022-12-15T09:42:35.124Z,96.87
2022-12-15T09:43:37.976Z,96.87
2022-12-15T09:44:35.116Z,96.72
2022-12-15T09:45:35.082Z,96.72
2022-12-15T09:46:35.142Z,96.61
2022-12-15T09:47:35.075Z,96.61
2022-12-15T09:48:35.056Z,96.61
2022-12-15T09:49:35.042Z,96.61
2022-12-15T09:50:35.033Z,96.61
2022-12-15T09:51:35.029Z,96.72
2022-12-15T09:52:35.016Z,96.72
2022-12-15T09:54:35.026Z,96.78
2022-12-15T09:55:34.977Z,96.78
2022-12-15T09:56:34.986Z,96.89
2022-12-15T09:57:34.957Z,96.78
2022-12-15T09:58:34.950Z,96.67
2022-12-15T09:59:34.933Z,96.67
2022-12-15T10:00:34.928Z,96.57
2022-12-15T10:01:34.973Z,96.57
2022-12-15T10:02:34.940Z,96.67
2022-12-15T10:03:35.558Z,96.63
2022-12-15T10:04:34.954Z,96.73
2022-12-15T15:03:03.660Z,96.73
2022-12-15T15:03:19.000Z,96.73
2022-12-15T15:03:24.664Z,96.22
2022-12-15T15:04:24.408Z,96.22
2022-12-15T15:05:24.451Z,96.33
2022-12-15T15:06:24.395Z,96.47
2022-12-15T15:07:24.372Z,96.47
2022-12-15T15:08:24.363Z,96.37
2022-12-15T15:09:24.356Z,96.47
2022-12-15T15:10:24.346Z,96.69
2022-12-15T15:11:24.338Z,96.69
2022-12-15T15:12:24.319Z,96.79
2022-12-15T15:13:24.309Z,96.83
2022-12-15T15:14:24.299Z,96.83
2022-12-15T15:15:24.289Z,96.83
2022-12-15T15:16:24.387Z,96.98
2022-12-15T15:17:24.264Z,97.09
2022-12-15T15:18:24.259Z,97.09
2022-12-15T15:19:24.243Z,97.09
2022-12-15T15:20:24.234Z,97.19
2022-12-15T15:21:24.254Z,97.34
2022-12-15T15:22:24.212Z,97.61
2022-12-15T15:23:24.197Z,97.82
2022-12-15T15:24:24.189Z,97.87
2022-12-15T15:25:24.183Z,97.97
2022-12-15T15:26:24.180Z,97.97
2022-12-15T15:27:24.295Z,97.97
2022-12-15T15:28:24.149Z,98.08
2022-12-15T15:29:24.168Z,98.08
2022-12-15T15:30:24.127Z,98.18
2022-12-15T15:31:24.185Z,98.23
2022-12-15T15:32:24.107Z,98.33
2022-12-15T15:33:24.091Z,98.44
2022-12-15T15:34:24.091Z,98.44
2022-12-15T15:35:24.071Z,98.44
2022-12-15T15:36:24.073Z,98.55
2022-12-15T15:37:24.051Z,98.75
2022-12-15T15:38:24.044Z,98.75
2022-12-15T15:39:24.025Z,98.75
2022-12-15T15:40:24.020Z,98.65
2022-12-15T15:41:24.017Z,98.69
2022-12-15T15:42:29.273Z,98.69
2022-12-15T15:43:23.991Z,98.69
2022-12-15T15:44:23.977Z,98.69
2022-12-15T15:45:23.963Z,98.69
2022-12-15T15:46:24.012Z,98.91
2022-12-15T15:47:23.940Z,99.33
2022-12-15T15:48:23.941Z,99.39
2022-12-15T15:49:23.919Z,99.49
2022-12-15T15:50:23.912Z,99.39
2022-12-15T15:51:23.923Z,99.43
2022-12-15T15:52:23.893Z,99.43
2022-12-15T15:53:23.876Z,99.43
2022-12-15T15:54:23.869Z,99.43
2022-12-15T15:55:23.852Z,99.33
2022-12-15T15:56:23.848Z,99.43
2022-12-15T15:57:23.841Z,99.43
2022-12-15T15:58:23.826Z,99.43
2022-12-15T15:59:23.811Z,99.43
2022-12-15T16:00:23.812Z,99.43
2022-12-15T16:01:24.014Z,99.43
2022-12-15T16:02:24.025Z,99.43
2022-12-15T16:03:24.013Z,99.37
2022-12-15T16:04:23.765Z,99.37
2022-12-15T16:05:23.748Z,99.48
2022-12-15T16:06:23.744Z,99.48
2022-12-15T16:07:23.736Z,99.69
2022-12-15T16:08:23.719Z,99.64
2022-12-15T16:09:23.705Z,99.69
2022-12-15T16:10:23.697Z,99.69
2022-12-15T16:11:23.682Z,99.69
2022-12-15T16:12:23.686Z,99.69
2022-12-15T16:13:26.210Z,99.69
2022-12-15T16:14:23.691Z,99.69
2022-12-15T16:15:23.641Z,99.69
2022-12-15T16:16:23.671Z,99.73
2022-12-15T16:17:23.631Z,99.73
2022-12-15T16:18:23.613Z,99.63
2022-12-15T16:19:23.596Z,99.63
2022-12-15T16:20:23.590Z,99.63
2022-12-15T16:21:23.573Z,99.63
2022-12-15T16:22:23.577Z,99.57
2022-12-15T16:23:23.560Z,99.57
2022-12-15T16:24:23.546Z,99.57
2022-12-15T16:25:23.531Z,99.57
2022-12-15T16:26:23.528Z,99.57
2022-12-15T16:27:23.532Z,99.61
2022-12-15T16:28:23.510Z,99.61
2022-12-15T16:29:23.489Z,99.40
2022-12-15T16:30:23.483Z,99.40
2022-12-15T16:31:23.619Z,99.51
2022-12-15T16:32:23.471Z,99.51
2022-12-15T16:33:23.448Z,99.51
2022-12-15T16:34:23.440Z,99.51
2022-12-15T16:35:23.423Z,99.66
2022-12-15T16:36:23.424Z,99.66
2022-12-15T16:37:23.409Z,99.76
2022-12-15T16:38:23.395Z,99.76
2022-12-15T16:39:23.383Z,99.76
2022-12-15T16:40:23.374Z,99.93
2022-12-15T16:41:23.379Z,99.99
2022-12-15T16:42:23.362Z,99.99
2022-12-15T16:43:23.365Z,99.99
2022-12-15T16:44:23.343Z,99.99
2022-12-15T16:45:23.328Z,99.99
2022-12-15T16:46:23.401Z,99.99
2022-12-15T16:47:23.303Z,99.99
2022-12-15T16:48:23.352Z,99.99
2022-12-15T16:49:23.276Z,99.99
2022-12-15T16:50:23.280Z,99.99
2022-12-15T16:51:23.251Z,99.99
2022-12-15T16:52:23.254Z,99.99
2022-12-15T16:53:23.231Z,99.99
2022-12-15T16:54:23.227Z,99.99
2022-12-15T16:55:23.213Z,99.99
2022-12-15T16:56:23.201Z,99.99
2022-12-15T16:57:23.197Z,99.99
2022-12-15T16:58:23.181Z,99.99
2022-12-15T16:59:32.965Z,99.99
2022-12-15T17:00:23.167Z,99.99
2022-12-15T17:01:23.230Z,99.99
2022-12-15T17:02:23.493Z,99.99
2022-12-15T17:03:23.507Z,99.99
2022-12-15T17:04:23.151Z,99.99
2022-12-15T17:05:23.108Z,99.99
2022-12-15T17:06:23.092Z,99.99
2022-12-15T17:07:23.098Z,99.99
2022-12-15T17:08:23.072Z,99.99
2022-12-15T17:09:23.065Z,99.99
2022-12-15T17:10:23.051Z,99.99
2022-12-15T17:11:23.043Z,99.99
2022-12-15T17:12:23.036Z,99.99
2022-12-15T17:13:23.019Z,99.99
2022-12-15T17:14:23.007Z,99.99
2022-12-15T17:15:23.001Z,99.99
2022-12-15T17:16:23.056Z,99.99
2022-12-15T17:17:22.986Z,99.99
2022-12-15T17:18:22.963Z,99.99
2022-12-15T17:19:22.958Z,99.99
2022-12-15T17:20:33.229Z,99.99
2022-12-15T17:21:22.945Z,99.99
2022-12-15T17:22:22.928Z,99.99
2022-12-15T17:23:22.975Z,99.99
2022-12-15T17:24:22.902Z,99.99
2022-12-15T17:25:37.496Z,99.99
2022-12-15T17:26:28.460Z,99.99
2022-12-15T17:27:22.889Z,99.99
2022-12-15T17:28:22.859Z,99.99
2022-12-15T17:29:22.917Z,99.99
2022-12-15T17:30:22.843Z,99.99
2022-12-15T17:31:22.909Z,99.99
2022-12-15T17:32:22.823Z,99.99
2022-12-15T17:33:22.811Z,99.99
2022-12-15T17:34:22.799Z,99.99
2022-12-15T17:35:22.789Z,99.99
2022-12-15T17:36:22.776Z,99.99
2022-12-15T17:37:22.776Z,99.99
2022-12-15T17:38:22.754Z,99.99
2022-12-15T17:39:22.752Z,99.99
2022-12-15T17:40:22.733Z,99.99
2022-12-15T17:41:42.822Z,99.99
2022-12-15T17:42:22.735Z,99.99
2022-12-15T17:43:22.762Z,99.99
2022-12-15T17:44:38.910Z,99.99
2022-12-15T17:45:22.747Z,99.99
2022-12-15T17:46:22.690Z,99.99
2022-12-15T17:47:22.686Z,99.99
2022-12-15T17:48:22.660Z,99.99
2022-12-15T17:49:22.643Z,99.99
2022-12-15T17:50:22.628Z,99.99
2022-12-15T17:51:22.621Z,99.99
2022-12-15T17:52:22.626Z,99.99
2022-12-15T17:53:22.612Z,99.95